Time;durP1;ratioP1;P1;durP2;ratioP2;P2;SDS_P1;SDS_P2;PMS_P1;PMS_P2;Temp;Humidity;BMP_temperature;BMP_pressure;BME280_temperature;BME280_humidity;BME280_pressure;Samples;Min_cycle;Max_cycle;Signal;HPM_P1;HPM_P2
2023/09/10 00:00:27;;;;;;;8.65;6.55;;;22.90;99.90;;;;;;5053385;28;21703;-76
2023/09/10 00:02:56;;;;;;;11.68;7.75;;;22.90;99.90;;;;;;5036661;28;20170;-75
2023/09/10 00:05:24;;;;;;;9.02;7.15;;;22.80;99.90;;;;;;5051324;28;20201;-73
2023/09/10 00:07:49;;;;;;;9.52;7.00;;;22.80;99.90;;;;;;5038847;28;20178;-76
2023/09/10 00:10:15;;;;;;;11.45;8.02;;;22.70;99.90;;;;;;5054686;28;20203;-75
2023/09/10 00:12:41;;;;;;;9.88;8.65;;;22.70;99.90;;;;;;5053284;28;20254;-76
2023/09/10 00:15:12;;;;;;;11.98;9.32;;;22.70;99.90;;;;;;5055109;28;20173;-74
2023/09/10 00:17:38;;;;;;;10.55;7.60;;;22.60;99.90;;;;;;5052593;28;20296;-74
2023/09/10 00:20:06;;;;;;;8.10;6.70;;;22.60;99.90;;;;;;5053017;28;20272;-73
2023/09/10 00:22:37;;;;;;;11.18;7.13;;;22.60;99.90;;;;;;5051648;28;20184;-75
2023/09/10 00:25:04;;;;;;;8.85;6.90;;;22.50;99.90;;;;;;5050030;28;20291;-76
2023/09/10 00:27:32;;;;;;;8.20;6.60;;;22.50;99.90;;;;;;5053558;28;20268;-76
2023/09/10 00:29:57;;;;;;;7.28;6.15;;;22.50;99.90;;;;;;5052164;28;20185;-73
2023/09/10 00:32:23;;;;;;;7.60;6.05;;;22.40;99.90;;;;;;5047870;28;20205;-76
2023/09/10 00:34:48;;;;;;;7.50;6.07;;;22.40;99.90;;;;;;5050151;28;20181;-67
2023/09/10 00:37:16;;;;;;;8.00;6.57;;;22.40;99.90;;;;;;5044189;28;20200;-75
2023/09/10 00:39:42;;;;;;;9.35;6.78;;;22.40;99.90;;;;;;5043562;28;20198;-74
2023/09/10 00:42:09;;;;;;;9.73;7.28;;;22.40;99.90;;;;;;5048361;28;20178;-74
2023/09/10 00:44:36;;;;;;;11.13;7.93;;;22.30;99.90;;;;;;5040201;28;20170;-76
2023/09/10 00:47:06;;;;;;;10.77;8.55;;;22.30;99.90;;;;;;5045674;28;20283;-75
2023/09/10 00:49:34;;;;;;;11.10;8.10;;;22.20;99.90;;;;;;5050331;28;20174;-74
2023/09/10 00:52:04;;;;;;;15.25;10.23;;;22.20;99.90;;;;;;5050104;28;20181;-77
2023/09/10 00:54:34;;;;;;;10.45;8.15;;;22.20;99.90;;;;;;5040519;28;20205;-76
2023/09/10 00:57:00;;;;;;;9.50;6.97;;;22.20;99.90;;;;;;5051672;28;20205;-74
2023/09/10 00:59:28;;;;;;;9.48;7.00;;;22.10;99.90;;;;;;5050247;28;20249;-69
2023/09/10 01:01:57;;;;;;;11.18;7.35;;;22.10;99.90;;;;;;5049976;28;20198;-74
2023/09/10 01:04:23;;;;;;;8.10;6.38;;;22.00;99.90;;;;;;5038056;28;20261;-75
2023/09/10 01:06:51;;;;;;;9.15;6.82;;;22.00;99.90;;;;;;5048227;28;20216;-69
2023/09/10 01:09:19;;;;;;;8.85;6.28;;;22.00;99.90;;;;;;5050310;28;20185;-76
2023/09/10 01:12:07;;;;;;;10.07;6.40;;;22.00;99.90;;;;;;5039663;28;20243;-76
2023/09/10 01:14:55;;;;;;;8.38;5.72;;;22.00;99.90;;;;;;5039313;28;20216;-74
2023/09/10 01:17:52;;;;;;;9.95;6.10;;;22.00;99.90;;;;;;5047312;28;20212;-76
2023/09/10 01:20:36;;;;;;;8.45;5.63;;;22.00;99.90;;;;;;5038147;28;20177;-76
2023/09/10 01:23:07;;;;;;;6.95;4.97;;;22.00;99.90;;;;;;5046508;28;20216;-76
2023/09/10 01:25:34;;;;;;;7.03;5.85;;;22.00;99.90;;;;;;5049960;28;20239;-74
2023/09/10 01:28:04;;;;;;;7.75;5.28;;;22.00;99.90;;;;;;5038550;28;20277;-74
2023/09/10 01:30:36;;;;;;;8.80;5.10;;;22.00;99.90;;;;;;5045125;28;20201;-76
2023/09/10 01:33:06;;;;;;;7.72;5.47;;;21.90;99.90;;;;;;5049578;28;20177;-76
2023/09/10 01:36:03;;;;;;;9.45;5.82;;;21.90;99.90;;;;;;5051795;28;20185;-76
2023/09/10 01:38:43;;;;;;;7.88;5.70;;;21.90;99.90;;;;;;5034994;28;20272;-77
2023/09/10 01:41:17;;;;;;;7.38;5.55;;;21.80;99.90;;;;;;5050889;28;20193;-75
2023/09/10 01:43:44;;;;;;;5.60;5.00;;;21.80;99.90;;;;;;5053061;28;20393;-76
2023/09/10 01:46:15;;;;;;;7.03;5.40;;;21.80;99.90;;;;;;5053049;28;20197;-76
2023/09/10 01:48:44;;;;;;;7.75;5.15;;;21.80;99.90;;;;;;5034100;28;20292;-70
2023/09/10 01:51:11;;;;;;;7.35;5.50;;;21.80;99.90;;;;;;5052144;28;20186;-76
2023/09/10 01:53:37;;;;;;;7.80;4.82;;;21.70;99.90;;;;;;5050253;28;20184;-76
2023/09/10 01:56:03;;;;;;;7.53;5.43;;;21.70;99.90;;;;;;5041704;28;20181;-76
2023/09/10 01:58:28;;;;;;;5.97;5.38;;;21.70;99.90;;;;;;5054355;28;20227;-76
2023/09/10 02:00:54;;;;;;;6.88;4.75;;;21.70;99.90;;;;;;5053419;28;20261;-72
2023/09/10 02:03:24;;;;;;;6.43;4.97;;;21.60;99.90;;;;;;5053550;28;20584;-75
2023/09/10 02:05:50;;;;;;;6.57;5.05;;;21.60;99.90;;;;;;5056904;28;20173;-75
2023/09/10 02:08:18;;;;;;;5.18;4.43;;;21.60;99.90;;;;;;5057681;28;20188;-72
2023/09/10 02:10:46;;;;;;;6.28;4.90;;;21.60;99.90;;;;;;5057115;28;20509;-76
2023/09/10 02:13:12;;;;;;;7.93;4.78;;;21.60;99.90;;;;;;5043768;28;20200;-73
2023/09/10 02:15:39;;;;;;;5.60;4.88;;;21.60;99.90;;;;;;5056056;28;20177;-71
2023/09/10 02:18:04;;;;;;;7.05;4.93;;;21.50;99.90;;;;;;5042540;28;20280;-75
2023/09/10 02:20:35;;;;;;;7.68;5.57;;;21.60;99.90;;;;;;5053294;28;20269;-73
2023/09/10 02:23:00;;;;;;;6.82;5.05;;;21.50;99.90;;;;;;5046933;28;20177;-72
2023/09/10 02:25:28;;;;;;;7.32;5.35;;;21.50;99.90;;;;;;5044807;28;20202;-73
2023/09/10 02:27:54;;;;;;;7.00;5.47;;;21.50;99.90;;;;;;5044512;28;20173;-72
2023/09/10 02:30:20;;;;;;;9.57;6.38;;;21.50;99.90;;;;;;5047060;28;20185;-73
2023/09/10 02:32:45;;;;;;;8.85;5.75;;;21.40;99.90;;;;;;5055379;28;20220;-76
2023/09/10 02:35:11;;;;;;;8.70;6.15;;;21.40;99.90;;;;;;5048845;28;20200;-76
2023/09/10 02:37:36;;;;;;;12.40;6.00;;;21.40;99.90;;;;;;5041762;28;20205;-75
2023/09/10 02:40:04;;;;;;;8.82;6.20;;;21.40;99.90;;;;;;5051007;28;20267;-76
2023/09/10 02:42:32;;;;;;;8.57;6.00;;;21.30;99.90;;;;;;5054412;28;20579;-73
2023/09/10 02:44:58;;;;;;;6.93;5.53;;;21.30;99.90;;;;;;5051581;28;20200;-73
2023/09/10 02:47:24;;;;;;;7.20;5.90;;;21.30;99.90;;;;;;5055494;28;20197;-73
2023/09/10 02:49:50;;;;;;;6.80;5.80;;;21.30;99.90;;;;;;5050781;28;20291;-73
2023/09/10 02:52:19;;;;;;;8.63;6.05;;;21.30;99.90;;;;;;5054902;28;20189;-73
2023/09/10 02:54:47;;;;;;;11.10;5.82;;;21.30;99.90;;;;;;5045491;28;20197;-72
2023/09/10 02:57:12;;;;;;;10.07;5.80;;;21.20;99.90;;;;;;5047491;28;20435;-72
2023/09/10 02:59:43;;;;;;;7.70;5.45;;;21.20;99.90;;;;;;5052494;28;20269;-72
2023/09/10 03:02:08;;;;;;;10.02;5.80;;;21.20;99.90;;;;;;5073082;28;20208;-73
2023/09/10 03:04:34;;;;;;;7.20;5.60;;;21.20;99.90;;;;;;5054296;28;20234;-72
2023/09/10 03:07:01;;;;;;;7.72;5.85;;;21.20;99.90;;;;;;5051270;28;20186;-72
2023/09/10 03:09:31;;;;;;;11.48;6.20;;;21.10;99.90;;;;;;5045450;28;20272;-73
2023/09/10 03:12:42;;;;;;;6.90;5.63;;;21.10;99.90;;;;;;5047445;28;20174;-72
2023/09/10 03:15:10;;;;;;;9.48;6.05;;;21.10;99.90;;;;;;5050613;28;20274;-73
2023/09/10 03:17:38;;;;;;;7.18;6.10;;;21.00;99.90;;;;;;5048053;28;20201;-73
2023/09/10 03:20:05;;;;;;;7.70;6.47;;;21.00;99.90;;;;;;5045496;28;20205;-72
2023/09/10 03:22:33;;;;;;;9.02;6.90;;;21.00;99.90;;;;;;5043166;28;20225;-70
2023/09/10 03:24:59;;;;;;;9.43;6.60;;;20.90;99.90;;;;;;5049090;28;20173;-73
2023/09/10 03:27:24;;;;;;;14.15;7.43;;;20.90;99.90;;;;;;5046030;28;20189;-72
2023/09/10 03:29:50;;;;;;;7.30;6.18;;;20.90;99.90;;;;;;5036055;28;20229;-72
2023/09/10 03:32:18;;;;;;;7.53;6.05;;;20.90;99.90;;;;;;5055468;28;20185;-72
2023/09/10 03:34:48;;;;;;;7.00;5.65;;;20.80;99.90;;;;;;5046978;28;20281;-73
2023/09/10 03:37:14;;;;;;;6.63;5.65;;;20.80;99.90;;;;;;5041434;28;20212;-73
2023/09/10 03:39:39;;;;;;;9.05;5.70;;;20.80;99.90;;;;;;5042552;28;20187;-72
2023/09/10 03:42:05;;;;;;;10.57;6.13;;;20.80;99.90;;;;;;5055104;28;20181;-73
2023/09/10 03:44:33;;;;;;;11.82;6.30;;;20.80;99.90;;;;;;5054739;28;20212;-73
2023/09/10 03:47:01;;;;;;;6.45;5.50;;;20.80;99.90;;;;;;5050026;28;20212;-72
2023/09/10 03:49:31;;;;;;;6.85;5.75;;;20.80;99.90;;;;;;5044289;28;20212;-72
2023/09/10 03:52:00;;;;;;;8.25;5.20;;;20.80;99.90;;;;;;5051940;28;20387;-73
2023/09/10 03:54:27;;;;;;;8.35;5.20;;;20.80;99.90;;;;;;5043155;28;20177;-72
2023/09/10 03:56:53;;;;;;;7.82;5.40;;;20.80;99.90;;;;;;5055117;28;20193;-72
2023/09/10 03:59:19;;;;;;;6.68;4.65;;;20.80;99.90;;;;;;5055321;28;20184;-73
2023/09/10 04:01:49;;;;;;;6.03;4.50;;;20.80;99.90;;;;;;5054286;28;20287;-73
2023/09/10 04:04:17;;;;;;;7.15;5.15;;;20.80;99.90;;;;;;5055245;28;20208;-73
2023/09/10 04:06:45;;;;;;;5.45;4.95;;;20.80;99.90;;;;;;5055079;28;20226;-73
2023/09/10 04:09:11;;;;;;;7.55;5.00;;;20.80;99.90;;;;;;5054807;28;20185;-73
2023/09/10 04:11:36;;;;;;;6.70;5.38;;;20.80;99.90;;;;;;5047029;28;20228;-73
2023/09/10 04:14:04;;;;;;;7.95;5.15;;;20.80;99.90;;;;;;5053663;28;20189;-73
2023/09/10 04:16:30;;;;;;;7.28;5.25;;;20.70;99.90;;;;;;5046121;28;20201;-71
2023/09/10 04:18:55;;;;;;;6.35;4.80;;;20.70;99.90;;;;;;5048009;28;20212;-71
2023/09/10 04:21:24;;;;;;;5.60;5.07;;;20.70;99.90;;;;;;5052849;28;20181;-73
2023/09/10 04:23:49;;;;;;;8.55;4.72;;;20.70;99.90;;;;;;5047616;28;20181;-72
2023/09/10 04:26:17;;;;;;;7.28;5.28;;;20.70;99.90;;;;;;5048885;28;20220;-73
2023/09/10 04:28:43;;;;;;;5.65;5.00;;;20.70;99.90;;;;;;5047079;28;20184;-73
2023/09/10 04:31:16;;;;;;;6.40;4.88;;;20.60;99.90;;;;;;5053636;28;20435;-73
2023/09/10 04:33:45;;;;;;;5.22;4.72;;;20.60;99.90;;;;;;5049190;28;20188;-68
2023/09/10 04:36:14;;;;;;;6.95;5.10;;;20.60;99.90;;;;;;5043618;28;20185;-72
2023/09/10 04:38:40;;;;;;;6.25;4.63;;;20.60;99.90;;;;;;5064490;28;20189;-73
2023/09/10 04:41:08;;;;;;;6.80;5.05;;;20.60;99.90;;;;;;5044677;28;20260;-73
2023/09/10 04:43:34;;;;;;;7.97;4.57;;;20.60;99.90;;;;;;5056799;28;20237;-73
2023/09/10 04:45:59;;;;;;;6.55;5.30;;;20.50;99.90;;;;;;5046420;28;20205;-72
2023/09/10 04:48:25;;;;;;;10.75;4.68;;;20.50;99.90;;;;;;5046962;28;20170;-72
2023/09/10 04:50:53;;;;;;;8.15;5.55;;;20.60;99.90;;;;;;5041286;28;20181;-73
2023/09/10 04:53:23;;;;;;;7.65;5.10;;;20.50;99.90;;;;;;5044868;28;20209;-73
2023/09/10 04:55:53;;;;;;;7.20;5.30;;;20.50;99.90;;;;;;5043144;28;20204;-74
2023/09/10 04:58:22;;;;;;;7.30;5.13;;;20.50;99.90;;;;;;5042416;28;20235;-73
2023/09/10 05:00:50;;;;;;;9.27;5.03;;;20.50;99.90;;;;;;5053252;28;20193;-74
2023/09/10 05:03:16;;;;;;;7.35;4.55;;;20.50;99.90;;;;;;5045935;28;20169;-74
2023/09/10 05:05:42;;;;;;;6.68;5.10;;;20.50;99.90;;;;;;5039493;28;20199;-73
2023/09/10 05:08:07;;;;;;;8.77;5.13;;;20.50;99.90;;;;;;5048191;28;20229;-73
2023/09/10 05:10:33;;;;;;;6.90;5.38;;;20.50;99.90;;;;;;5045704;28;20177;-73
2023/09/10 05:12:59;;;;;;;8.18;5.20;;;20.50;99.90;;;;;;5046506;28;20186;-73
2023/09/10 05:15:24;;;;;;;6.18;5.05;;;20.50;99.90;;;;;;5046498;28;20198;-72
2023/09/10 05:17:52;;;;;;;6.55;4.65;;;20.50;99.90;;;;;;5047878;28;20201;-73
2023/09/10 05:20:18;;;;;;;9.18;5.47;;;20.60;99.90;;;;;;5051281;28;20192;-74
2023/09/10 05:22:46;;;;;;;8.02;5.10;;;20.60;99.90;;;;;;5047182;28;20198;-73
2023/09/10 05:25:11;;;;;;;7.78;5.20;;;20.60;99.90;;;;;;5049561;28;20189;-72
2023/09/10 05:27:39;;;;;;;9.65;5.13;;;20.60;99.90;;;;;;5049698;28;20204;-72
2023/09/10 05:30:08;;;;;;;9.07;5.13;;;20.60;99.90;;;;;;5051437;28;20236;-73
2023/09/10 05:32:34;;;;;;;13.13;8.77;;;20.60;99.90;;;;;;5052802;28;20189;-73
2023/09/10 05:34:59;;;;;;;9.65;6.80;;;20.60;99.90;;;;;;5050520;28;20196;-72
2023/09/10 05:37:27;;;;;;;8.30;6.05;;;20.60;99.90;;;;;;5052747;28;20209;-71
2023/09/10 05:39:55;;;;;;;8.18;5.35;;;20.70;99.90;;;;;;5044281;28;20182;-74
2023/09/10 05:42:21;;;;;;;6.65;5.05;;;20.70;99.90;;;;;;5057168;28;20189;-74
2023/09/10 05:44:51;;;;;;;18.60;12.13;;;20.70;99.90;;;;;;5065085;28;20227;-74
2023/09/10 05:47:19;;;;;;;8.80;7.38;;;20.80;99.90;;;;;;5053768;28;20235;-74
2023/09/10 05:49:48;;;;;;;7.88;6.03;;;20.80;99.90;;;;;;5061406;28;20174;-71
2023/09/10 05:52:17;;;;;;;8.90;6.28;;;20.80;99.90;;;;;;5046305;28;20205;-73
2023/09/10 05:54:42;;;;;;;10.25;6.00;;;20.80;99.90;;;;;;5043717;28;20230;-73
2023/09/10 05:57:08;;;;;;;8.50;5.25;;;20.80;99.90;;;;;;5049316;28;20272;-73
2023/09/10 05:59:34;;;;;;;9.20;5.63;;;20.80;99.90;;;;;;5057590;28;20203;-73
2023/09/10 06:02:00;;;;;;;8.63;6.03;;;20.80;99.90;;;;;;5057421;28;20181;-73
2023/09/10 06:04:27;;;;;;;9.32;5.95;;;20.90;99.90;;;;;;5057652;28;20256;-72
2023/09/10 06:06:55;;;;;;;7.57;5.68;;;20.90;99.90;;;;;;5056558;28;20442;-71
2023/09/10 06:09:21;;;;;;;9.38;5.60;;;20.90;99.90;;;;;;5056854;28;20177;-74
2023/09/10 06:11:46;;;;;;;7.75;5.30;;;20.90;99.90;;;;;;5046397;28;20201;-73
2023/09/10 06:14:16;;;;;;;8.52;5.07;;;21.00;99.90;;;;;;5055769;28;20209;-72
2023/09/10 06:16:43;;;;;;;7.55;5.43;;;21.00;99.90;;;;;;5058116;28;20197;-72
2023/09/10 06:19:10;;;;;;;9.15;5.10;;;21.00;99.90;;;;;;5048634;28;20209;-73
2023/09/10 06:21:38;;;;;;;7.95;4.68;;;21.10;99.90;;;;;;5049215;28;20174;-73
2023/09/10 06:24:04;;;;;;;8.10;5.10;;;21.10;99.90;;;;;;5055942;28;20397;-74
2023/09/10 06:26:32;;;;;;;6.68;5.00;;;21.10;99.90;;;;;;5044087;28;20433;-74
2023/09/10 06:29:03;;;;;;;5.63;4.35;;;21.20;99.90;;;;;;5052114;28;20173;-74
2023/09/10 06:31:29;;;;;;;6.65;4.25;;;21.20;99.90;;;;;;5053219;28;20193;-71
2023/09/10 06:33:57;;;;;;;6.00;4.40;;;21.30;99.90;;;;;;5060679;28;20201;-73
2023/09/10 06:36:23;;;;;;;6.82;4.75;;;21.30;99.90;;;;;;5052574;28;20216;-73
2023/09/10 06:38:51;;;;;;;6.40;4.57;;;21.40;99.90;;;;;;5051082;28;20175;-72
2023/09/10 06:41:22;;;;;;;9.98;5.07;;;21.40;99.90;;;;;;5040387;28;20201;-71
2023/09/10 06:43:49;;;;;;;8.00;4.97;;;21.50;99.90;;;;;;5041244;28;20174;-70
2023/09/10 06:46:17;;;;;;;6.60;4.88;;;21.50;99.90;;;;;;5038569;28;20183;-71
2023/09/10 06:48:43;;;;;;;8.00;4.85;;;21.60;99.90;;;;;;5057462;28;20454;-73
2023/09/10 06:51:08;;;;;;;7.85;4.53;;;21.60;99.90;;;;;;5053743;28;20269;-72
2023/09/10 06:53:39;;;;;;;5.47;4.38;;;21.70;99.90;;;;;;5043140;28;20216;-73
2023/09/10 06:56:06;;;;;;;10.80;5.35;;;21.70;99.90;;;;;;5054725;28;20190;-73
2023/09/10 06:58:32;;;;;;;8.57;4.72;;;21.80;99.90;;;;;;5045146;28;20189;-73
2023/09/10 07:01:06;;;;;;;11.20;5.03;;;21.80;99.90;;;;;;5046047;28;20188;-73
2023/09/10 07:03:33;;;;;;;7.03;4.55;;;21.90;99.90;;;;;;5047257;28;20266;-68
2023/09/10 07:05:59;;;;;;;6.90;5.13;;;21.90;99.90;;;;;;5057222;28;20504;-71
2023/09/10 07:08:25;;;;;;;7.40;5.45;;;22.00;99.90;;;;;;5052751;28;20247;-74
2023/09/10 07:10:51;;;;;;;7.40;4.70;;;22.00;99.90;;;;;;5054763;28;20189;-73
2023/09/10 07:13:16;;;;;;;7.50;5.00;;;22.10;99.90;;;;;;5045604;28;20251;-71
2023/09/10 07:15:42;;;;;;;9.70;5.00;;;22.20;99.90;;;;;;5053728;28;20242;-71
2023/09/10 07:18:12;;;;;;;5.68;4.63;;;22.20;99.90;;;;;;5041840;28;20224;-71
2023/09/10 07:20:38;;;;;;;7.78;4.88;;;22.30;99.90;;;;;;5053832;28;20280;-71
2023/09/10 07:23:08;;;;;;;6.65;4.75;;;22.30;99.90;;;;;;5041652;28;20269;-71
2023/09/10 07:25:39;;;;;;;6.97;4.65;;;22.40;99.90;;;;;;5053600;28;20169;-69
2023/09/10 07:28:09;;;;;;;6.40;4.30;;;22.40;99.90;;;;;;5069805;28;20196;-71
2023/09/10 07:30:34;;;;;;;4.85;4.35;;;22.50;99.90;;;;;;5037195;28;20401;-71
2023/09/10 07:33:00;;;;;;;7.93;4.50;;;22.60;99.90;;;;;;5051754;28;20200;-71
2023/09/10 07:35:27;;;;;;;5.25;4.70;;;22.60;99.90;;;;;;5057396;28;20170;-71
2023/09/10 07:37:55;;;;;;;6.45;4.80;;;22.70;99.90;;;;;;5045660;28;20245;-70
2023/09/10 07:40:21;;;;;;;6.50;4.32;;;22.80;99.90;;;;;;5048643;28;20225;-72
2023/09/10 07:42:48;;;;;;;6.82;4.90;;;22.90;99.90;;;;;;5043419;28;20283;-67
2023/09/10 07:45:14;;;;;;;11.88;6.95;;;22.90;99.90;;;;;;5053170;28;20276;-71
2023/09/10 07:47:43;;;;;;;8.38;6.07;;;23.00;99.90;;;;;;5054803;28;20336;-71
2023/09/10 07:50:11;;;;;;;5.93;5.13;;;23.10;99.90;;;;;;5054972;28;20187;-75
2023/09/10 07:52:38;;;;;;;6.43;4.47;;;23.10;99.90;;;;;;5054852;28;20184;-73
2023/09/10 07:55:04;;;;;;;7.22;4.97;;;23.20;99.90;;;;;;5048721;28;20209;-75
2023/09/10 07:57:33;;;;;;;7.63;5.30;;;23.30;99.90;;;;;;5050820;28;20210;-74
2023/09/10 07:59:58;;;;;;;5.57;4.57;;;23.40;99.90;;;;;;5052971;28;20423;-75
2023/09/10 08:02:26;;;;;;;8.73;4.80;;;23.40;99.90;;;;;;5037882;28;20185;-71
2023/09/10 08:04:54;;;;;;;6.07;4.47;;;23.50;99.90;;;;;;5053282;28;20181;-74
2023/09/10 08:07:20;;;;;;;8.00;4.60;;;23.60;99.90;;;;;;5054667;28;20182;-75
2023/09/10 08:09:46;;;;;;;6.10;4.90;;;23.70;99.90;;;;;;5055357;28;20182;-74
2023/09/10 08:12:12;;;;;;;8.00;5.10;;;23.80;99.90;;;;;;5052780;28;20261;-74
2023/09/10 08:14:38;;;;;;;7.78;5.50;;;23.80;99.90;;;;;;5053907;28;20185;-71
2023/09/10 08:17:04;;;;;;;6.72;5.07;;;23.90;99.90;;;;;;5047682;28;20202;-75
2023/09/10 08:19:30;;;;;;;7.53;5.60;;;24.00;99.90;;;;;;5052134;28;20181;-75
2023/09/10 08:21:55;;;;;;;7.25;5.28;;;24.10;99.90;;;;;;5052645;28;20193;-75
2023/09/10 08:24:23;;;;;;;6.15;5.20;;;24.10;99.90;;;;;;5049603;28;20185;-70
2023/09/10 08:26:51;;;;;;;5.82;5.10;;;24.20;99.90;;;;;;5047841;28;20181;-66
2023/09/10 08:29:17;;;;;;;7.22;4.78;;;24.30;99.90;;;;;;5043179;28;20178;-73
2023/09/10 08:31:42;;;;;;;6.72;4.50;;;24.40;99.90;;;;;;5039970;28;20221;-76
2023/09/10 08:34:10;;;;;;;6.68;4.60;;;24.50;99.90;;;;;;5057889;28;20188;-78
2023/09/10 08:36:38;;;;;;;6.45;4.45;;;24.60;99.90;;;;;;5047665;28;20197;-78
2023/09/10 08:39:06;;;;;;;6.53;4.78;;;24.70;99.90;;;;;;5055237;28;20207;-74
2023/09/10 08:41:47;;;;;;;8.77;5.32;;;24.80;99.90;;;;;;5051586;28;20185;-75
2023/09/10 08:44:17;;;;;;;6.00;4.57;;;24.90;99.90;;;;;;5039179;28;20257;-73
2023/09/10 08:46:44;;;;;;;5.32;4.35;;;25.00;99.90;;;;;;5040116;28;20197;-74
2023/09/10 08:49:16;;;;;;;9.27;4.57;;;25.10;99.90;;;;;;5053209;28;20205;-75
2023/09/10 08:51:42;;;;;;;9.32;4.90;;;25.30;99.90;;;;;;5061715;28;20189;-76
2023/09/10 08:54:09;;;;;;;6.28;5.18;;;25.30;99.90;;;;;;5042584;28;20202;-70
2023/09/10 08:56:38;;;;;;;9.73;5.00;;;25.40;99.90;;;;;;5057406;28;20345;-75
2023/09/10 08:59:05;;;;;;;6.30;4.38;;;25.50;99.90;;;;;;5052601;28;20184;-74
2023/09/10 09:01:31;;;;;;;6.30;4.43;;;25.70;99.90;;;;;;5051722;28;20174;-75
2023/09/10 09:04:01;;;;;;;6.28;4.38;;;25.70;99.90;;;;;;5052174;28;20461;-72
2023/09/10 09:06:33;;;;;;;7.70;4.85;;;25.90;99.90;;;;;;5050931;28;20173;-73
2023/09/10 09:09:09;;;;;;;7.80;4.85;;;26.00;99.90;;;;;;5047177;28;20224;-74
2023/09/10 09:11:37;;;;;;;5.30;4.22;;;26.10;99.90;;;;;;5062166;28;20178;-72
2023/09/10 09:14:07;;;;;;;6.10;4.63;;;26.20;99.90;;;;;;5048321;28;20213;-75
2023/09/10 09:16:34;;;;;;;9.15;5.40;;;26.30;99.90;;;;;;5048063;28;20200;-73
2023/09/10 09:19:06;;;;;;;7.03;5.35;;;26.40;99.90;;;;;;5048744;28;20193;-73
2023/09/10 09:21:32;;;;;;;4.80;4.20;;;26.50;99.90;;;;;;5057325;28;20196;-71
2023/09/10 09:23:59;;;;;;;7.47;4.55;;;26.70;99.90;;;;;;5052252;28;20204;-73
2023/09/10 09:26:30;;;;;;;7.43;4.80;;;26.80;99.90;;;;;;5043721;28;20172;-74
2023/09/10 09:29:00;;;;;;;6.78;4.68;;;26.90;99.90;;;;;;5052385;28;20176;-72
2023/09/10 09:31:26;;;;;;;7.97;4.60;;;27.00;99.90;;;;;;5049272;28;20237;-74
2023/09/10 09:33:57;;;;;;;6.78;4.50;;;27.10;99.90;;;;;;5054962;28;20271;-73
2023/09/10 09:36:39;;;;;;;7.20;4.13;;;27.30;99.90;;;;;;5055312;28;20430;-76
2023/09/10 09:39:07;;;;;;;5.82;4.40;;;27.40;99.90;;;;;;5052431;28;20265;-73
2023/09/10 09:41:35;;;;;;;10.77;4.18;;;27.40;99.90;;;;;;5048728;28;20166;-73
2023/09/10 09:44:05;;;;;;;8.15;4.03;;;27.60;99.90;;;;;;5045178;28;20335;-74
2023/09/10 09:46:33;;;;;;;5.80;3.85;;;27.70;99.90;;;;;;5058331;28;20452;-73
2023/09/10 09:48:58;;;;;;;6.78;4.18;;;27.90;99.90;;;;;;5057473;28;20276;-75
2023/09/10 09:51:27;;;;;;;7.03;4.03;;;28.10;99.90;;;;;;5040896;28;20264;-75
2023/09/10 09:53:54;;;;;;;7.22;3.78;;;28.50;99.90;;;;;;5049087;28;20184;-76
2023/09/10 09:56:22;;;;;;;4.55;3.58;;;29.20;99.90;;;;;;5051136;28;20174;-75
2023/09/10 09:58:48;;;;;;;5.57;3.72;;;29.80;99.90;;;;;;5045936;28;20168;-74
2023/09/10 10:01:13;;;;;;;5.45;3.75;;;30.50;99.90;;;;;;5053142;28;20197;-73
2023/09/10 10:03:40;;;;;;;6.07;4.00;;;31.10;99.90;;;;;;5055778;28;20260;-73
2023/09/10 10:06:06;;;;;;;5.30;3.40;;;31.60;99.90;;;;;;5055351;28;20214;-72
2023/09/10 10:08:34;;;;;;;5.15;3.53;;;32.10;99.90;;;;;;5051340;28;20189;-73
2023/09/10 10:11:00;;;;;;;5.00;3.22;;;32.60;99.90;;;;;;5040512;28;20197;-74
2023/09/10 10:13:29;;;;;;;4.97;3.03;;;33.00;99.90;;;;;;5046477;28;20250;-72
2023/09/10 10:15:56;;;;;;;5.78;3.30;;;33.40;99.90;;;;;;5038086;28;20226;-75
2023/09/10 10:18:23;;;;;;;4.82;3.00;;;33.70;99.90;;;;;;5053353;28;20201;-72
2023/09/10 10:20:49;;;;;;;5.30;3.03;;;34.00;99.90;;;;;;5057393;28;20331;-74
2023/09/10 10:23:16;;;;;;;3.72;3.10;;;34.30;99.90;;;;;;5045126;28;20177;-72
2023/09/10 10:25:43;;;;;;;4.80;3.13;;;34.50;99.90;;;;;;5045131;28;20182;-71
2023/09/10 10:28:15;;;;;;;5.28;3.00;;;34.70;99.90;;;;;;5046505;28;20212;-75
2023/09/10 10:30:57;;;;;;;5.15;3.33;;;34.90;99.90;;;;;;5051717;28;20272;-72
2023/09/10 10:33:27;;;;;;;7.07;3.00;;;35.20;99.90;;;;;;5050837;28;20252;-73
2023/09/10 10:36:07;;;;;;;5.60;2.55;;;35.30;99.90;;;;;;5053309;28;20267;-74
2023/09/10 10:38:40;;;;;;;6.32;3.50;;;35.40;99.70;;;;;;5052263;28;20196;-70
2023/09/10 10:41:13;;;;;;;6.28;3.20;;;35.50;99.90;;;;;;5053397;28;20181;-71
2023/09/10 10:43:50;;;;;;;6.53;2.95;;;35.60;97.50;;;;;;5051925;28;20201;-71
2023/09/10 10:46:23;;;;;;;5.50;2.95;;;35.60;97.30;;;;;;5055664;28;20180;-73
2023/09/10 10:48:50;;;;;;;4.30;2.85;;;35.70;98.60;;;;;;5052039;28;20199;-71
2023/09/10 10:51:17;;;;;;;5.03;3.05;;;35.80;98.20;;;;;;5053203;28;20177;-69
2023/09/10 10:53:43;;;;;;;4.88;3.10;;;35.90;97.70;;;;;;5050187;28;20185;-70
2023/09/10 10:56:09;;;;;;;4.53;3.13;;;35.90;97.70;;;;;;5050600;28;20188;-70
2023/09/10 10:58:39;;;;;;;4.20;2.85;;;36.00;97.00;;;;;;5046975;28;20200;-68
2023/09/10 11:01:05;;;;;;;4.25;2.90;;;36.00;95.90;;;;;;5049884;28;20181;-69
2023/09/10 11:03:33;;;;;;;4.28;2.70;;;36.00;95.50;;;;;;5042722;28;20327;-68
2023/09/10 11:06:04;;;;;;;4.05;2.80;;;36.00;95.40;;;;;;5054999;28;20177;-68
2023/09/10 11:08:48;;;;;;;2.78;2.47;;;36.00;95.20;;;;;;5052555;28;20315;-68
2023/09/10 11:11:37;;;;;;;5.57;2.80;;;36.10;94.10;;;;;;5052303;28;20196;-69
2023/09/10 11:14:08;;;;;;;3.53;2.78;;;36.20;94.10;;;;;;5045272;28;20288;-68
2023/09/10 11:16:34;;;;;;;4.10;3.00;;;36.20;94.90;;;;;;5053745;28;20207;-69
2023/09/10 11:19:04;;;;;;;3.97;3.08;;;36.30;95.00;;;;;;5052272;28;20178;-69
2023/09/10 11:21:54;;;;;;;3.50;2.90;;;36.40;94.70;;;;;;5053316;28;20173;-71
2023/09/10 11:24:22;;;;;;;4.60;2.67;;;36.40;93.60;;;;;;5039523;28;20201;-70
2023/09/10 11:27:07;;;;;;;5.50;3.17;;;36.50;94.70;;;;;;5040223;28;20170;-71
2023/09/10 11:29:35;;;;;;;4.43;2.90;;;36.40;94.40;;;;;;5048625;28;20181;-69
2023/09/10 11:32:00;;;;;;;6.30;3.28;;;36.40;94.20;;;;;;5054764;28;20176;-70
2023/09/10 11:34:31;;;;;;;4.90;2.97;;;36.40;93.80;;;;;;5052752;28;20219;-70
2023/09/10 11:37:04;;;;;;;3.40;2.90;;;36.40;93.90;;;;;;5049192;28;20306;-70
2023/09/10 11:39:34;;;;;;;4.05;2.63;;;36.40;92.60;;;;;;5053037;28;20176;-70
2023/09/10 11:42:04;;;;;;;8.65;2.92;;;36.40;93.40;;;;;;5053145;28;20173;-70
2023/09/10 11:44:31;;;;;;;4.63;3.28;;;36.40;93.20;;;;;;5053827;28;20184;-70
2023/09/10 11:46:57;;;;;;;6.10;2.67;;;36.40;93.10;;;;;;5051666;28;20217;-71
2023/09/10 11:49:26;;;;;;;5.30;3.03;;;36.50;92.90;;;;;;5046419;28;20260;-71
2023/09/10 11:51:55;;;;;;;4.93;2.85;;;36.60;92.70;;;;;;5050583;28;20180;-70
2023/09/10 11:54:21;;;;;;;5.00;2.65;;;36.60;92.30;;;;;;5048740;28;20180;-69
2023/09/10 11:56:49;;;;;;;4.25;2.97;;;36.70;92.40;;;;;;5053346;28;20200;-67
2023/09/10 11:59:20;;;;;;;3.72;3.13;;;36.80;92.10;;;;;;5052377;28;20403;-67
2023/09/10 12:01:46;;;;;;;4.82;3.70;;;36.90;91.50;;;;;;5052790;28;20228;-67
2023/09/10 12:04:13;;;;;;;4.95;3.28;;;37.00;91.80;;;;;;5049059;28;20204;-68
2023/09/10 12:06:42;;;;;;;7.32;3.90;;;37.10;91.30;;;;;;5054089;28;20267;-67
2023/09/10 12:09:07;;;;;;;4.95;3.25;;;37.10;90.80;;;;;;5054639;28;20193;-68
2023/09/10 12:11:35;;;;;;;5.35;2.97;;;37.20;90.30;;;;;;5050512;28;20192;-68
2023/09/10 12:14:02;;;;;;;4.05;3.10;;;37.10;88.40;;;;;;5050412;28;20188;-68
2023/09/10 12:16:28;;;;;;;5.32;3.08;;;37.10;88.20;;;;;;5040961;28;20287;-68
2023/09/10 12:18:56;;;;;;;4.60;2.70;;;37.10;88.20;;;;;;5044872;28;20264;-68
2023/09/10 12:21:24;;;;;;;7.78;3.20;;;37.10;87.90;;;;;;5054452;28;20275;-67
2023/09/10 12:23:50;;;;;;;5.60;3.85;;;37.10;87.10;;;;;;5043302;28;20193;-68
2023/09/10 12:26:19;;;;;;;5.13;3.28;;;37.10;87.00;;;;;;5044642;28;20256;-67
2023/09/10 12:28:47;;;;;;;5.32;3.17;;;37.00;84.00;;;;;;5042943;28;20173;-67
2023/09/10 12:31:13;;;;;;;7.05;2.85;;;37.00;84.20;;;;;;5050681;28;20259;-69
2023/09/10 12:33:40;;;;;;;4.93;3.10;;;36.90;84.20;;;;;;5053490;28;20310;-69
2023/09/10 12:36:10;;;;;;;4.40;3.15;;;36.90;84.60;;;;;;5051133;28;20169;-70
2023/09/10 12:38:36;;;;;;;5.70;2.97;;;36.90;84.70;;;;;;5053816;28;20274;-70
2023/09/10 12:41:04;;;;;;;6.22;3.20;;;37.00;84.70;;;;;;5048505;28;20173;-69
2023/09/10 12:43:32;;;;;;;4.38;2.45;;;37.00;83.40;;;;;;5052555;28;20174;-68
2023/09/10 12:46:00;;;;;;;5.32;2.88;;;37.00;84.00;;;;;;5052845;28;20200;-70
2023/09/10 12:48:25;;;;;;;4.85;2.90;;;37.00;83.60;;;;;;5047788;28;20291;-67
2023/09/10 12:50:57;;;;;;;5.30;2.58;;;37.10;83.80;;;;;;5054140;28;20269;-68